createdAt,value
2018-02-25T00:00:30.999Z,5.37
2018-02-25T00:02:57.108Z,9.10
2018-02-25T00:05:23.226Z,4.60
2018-02-25T00:07:50.112Z,3.75
2018-02-25T00:10:16.257Z,5.68
2018-02-25T00:12:42.595Z,6.18
2018-02-25T00:15:08.910Z,7.62
2018-02-25T00:17:36.227Z,9.30
2018-02-25T00:20:03.084Z,6.95
2018-02-25T00:22:36.270Z,7.45
2018-02-25T00:25:02.897Z,6.57
2018-02-25T00:27:29.496Z,5.62
2018-02-25T00:29:57.181Z,3.72
2018-02-25T00:32:25.301Z,9.07
2018-02-25T00:34:56.270Z,6.07
2018-02-25T00:37:25.224Z,5.47
2018-02-25T00:39:54.049Z,12.43
2018-02-25T00:42:22.865Z,4.90
2018-02-25T00:44:52.181Z,7.07
2018-02-25T00:47:20.647Z,6.10
2018-02-25T00:49:49.136Z,7.05
2018-02-25T00:52:16.413Z,8.35
2018-02-25T00:54:42.655Z,5.00
2018-02-25T00:57:08.844Z,6.18
2018-02-25T00:59:35.385Z,4.03
2018-02-25T01:02:01.495Z,6.05
2018-02-25T01:04:28.390Z,5.97
2018-02-25T01:06:54.523Z,3.53
2018-02-25T01:09:20.630Z,5.35
2018-02-25T01:11:48.010Z,8.63
2018-02-25T01:14:16.112Z,6.37
2018-02-25T01:16:42.236Z,8.57
2018-02-25T01:19:09.946Z,11.43
2018-02-25T01:21:36.607Z,7.35
2018-02-25T01:24:02.735Z,10.43
2018-02-25T01:26:28.851Z,6.85
2018-02-25T01:32:07.421Z,14.90
2018-02-25T01:34:33.569Z,8.98
2018-02-25T01:39:55.238Z,25.33
2018-02-25T01:42:25.276Z,22.10
2018-02-25T01:44:55.819Z,15.40
2018-02-25T01:47:25.517Z,7.15
2018-02-25T01:49:52.781Z,17.48
2018-02-25T01:52:20.816Z,15.40
2018-02-25T01:54:47.988Z,10.48
2018-02-25T01:57:15.123Z,9.63
2018-02-25T01:59:42.304Z,10.20
2018-02-25T02:02:11.280Z,12.90
2018-02-25T02:04:40.286Z,6.40
2018-02-25T02:07:09.150Z,9.27
2018-02-25T02:09:35.483Z,9.95
2018-02-25T02:12:02.416Z,6.90
2018-02-25T02:14:28.549Z,10.20
2018-02-25T02:16:54.671Z,15.85
2018-02-25T02:19:20.799Z,9.27
2018-02-25T02:21:46.959Z,10.13
2018-02-25T02:24:13.064Z,10.02
2018-02-25T02:26:39.174Z,8.40
2018-02-25T02:29:05.386Z,11.18
2018-02-25T02:31:31.488Z,9.23
2018-02-25T02:33:57.793Z,11.35
2018-02-25T02:36:23.919Z,14.27
2018-02-25T02:38:50.047Z,10.40
2018-02-25T02:41:16.202Z,12.65
2018-02-25T02:43:42.372Z,11.12
2018-02-25T02:46:08.536Z,9.02
2018-02-25T02:48:34.684Z,10.20
2018-02-25T02:51:00.803Z,9.93
2018-02-25T02:53:26.911Z,11.12
2018-02-25T02:55:53.807Z,9.77
2018-02-25T02:58:19.961Z,7.82
2018-02-25T03:00:46.113Z,18.02
2018-02-25T03:03:12.247Z,13.48
2018-02-25T03:05:38.885Z,6.45
2018-02-25T03:08:05.068Z,6.25
2018-02-25T03:10:31.187Z,7.30
2018-02-25T03:12:57.333Z,8.48
2018-02-25T03:15:23.475Z,6.25
2018-02-25T03:17:49.624Z,7.20
2018-02-25T03:20:15.759Z,8.07
2018-02-25T03:22:41.871Z,10.05
2018-02-25T03:25:08.036Z,7.68
2018-02-25T03:27:34.227Z,9.60
2018-02-25T03:30:00.364Z,13.80
2018-02-25T03:32:26.483Z,14.63
2018-02-25T03:34:52.647Z,10.43
2018-02-25T03:37:18.777Z,15.85
2018-02-25T03:42:48.501Z,8.85
2018-02-25T03:45:18.826Z,9.23
2018-02-25T03:47:49.024Z,8.85
2018-02-25T03:50:19.276Z,9.32
2018-02-25T03:52:45.400Z,9.45
2018-02-25T03:55:11.500Z,8.45
2018-02-25T03:57:37.603Z,7.65
2018-02-25T04:00:03.776Z,11.20
2018-02-25T04:02:30.650Z,8.23
2018-02-25T04:04:56.815Z,14.00
2018-02-25T04:07:22.992Z,7.05
2018-02-25T04:09:49.139Z,10.35
2018-02-25T04:12:15.290Z,9.98
2018-02-25T04:14:41.418Z,10.70
2018-02-25T04:17:07.542Z,13.52
2018-02-25T04:19:33.708Z,10.32
2018-02-25T04:22:00.564Z,9.60
2018-02-25T04:24:27.413Z,9.50
2018-02-25T04:26:53.551Z,14.10
2018-02-25T04:29:19.727Z,10.60
2018-02-25T04:31:45.834Z,10.85
2018-02-25T04:34:12.692Z,13.52
2018-02-25T04:36:38.851Z,11.15
2018-02-25T04:39:06.021Z,9.75
2018-02-25T04:41:32.333Z,8.13
2018-02-25T04:44:00.189Z,11.52
2018-02-25T04:46:29.856Z,16.33
2018-02-25T04:48:58.751Z,11.52
2018-02-25T04:51:26.369Z,8.52
2018-02-25T04:53:55.526Z,15.65
2018-02-25T04:56:24.409Z,13.18
2018-02-25T04:58:51.720Z,18.58
2018-02-25T05:01:18.834Z,11.98
2018-02-25T05:03:46.690Z,8.73
2018-02-25T05:06:15.263Z,10.02
2018-02-25T05:08:42.536Z,10.80
2018-02-25T05:11:09.824Z,8.98
2018-02-25T05:13:36.236Z,16.12
2018-02-25T05:16:03.251Z,10.20
2018-02-25T05:18:31.015Z,10.52
2018-02-25T05:21:00.953Z,15.63
2018-02-25T05:23:28.391Z,12.70
2018-02-25T05:25:58.803Z,7.97
2018-02-25T05:28:26.268Z,7.85
2018-02-25T05:30:54.737Z,13.27
2018-02-25T05:33:23.751Z,9.02
2018-02-25T05:35:50.109Z,9.77
2018-02-25T05:38:18.019Z,11.05
2018-02-25T05:40:45.324Z,12.82
2018-02-25T05:43:14.254Z,10.75
2018-02-25T05:45:41.776Z,11.75
2018-02-25T05:48:10.985Z,31.70
2018-02-25T05:50:39.148Z,38.67
2018-02-25T05:53:05.508Z,29.30
2018-02-25T05:55:32.392Z,15.23
2018-02-25T05:58:00.581Z,12.63
2018-02-25T06:00:30.593Z,14.63
2018-02-25T06:02:58.810Z,19.73
2018-02-25T06:05:28.374Z,141.57
2018-02-25T06:07:56.525Z,35.47
2018-02-25T06:10:25.533Z,16.40
2018-02-25T06:12:52.556Z,14.93
2018-02-25T06:15:18.905Z,22.10
2018-02-25T06:17:47.052Z,21.92
2018-02-25T06:20:16.389Z,17.10
2018-02-25T06:22:47.444Z,13.75
2018-02-25T06:25:14.511Z,22.95
2018-02-25T06:27:41.803Z,33.75
2018-02-25T06:30:09.993Z,80.53
2018-02-25T06:32:39.776Z,47.78
2018-02-25T06:35:10.242Z,45.70
2018-02-25T06:37:39.175Z,18.95
2018-02-25T06:40:05.490Z,88.05
2018-02-25T06:42:31.633Z,123.95
2018-02-25T06:44:57.749Z,97.88
2018-02-25T06:47:23.890Z,81.45
2018-02-25T06:49:51.023Z,146.82
2018-02-25T06:52:17.932Z,120.78
2018-02-25T06:54:45.439Z,71.03
2018-02-25T06:57:12.414Z,115.30
2018-02-25T06:59:43.065Z,48.20
2018-02-25T07:02:09.445Z,60.22
2018-02-25T07:04:35.607Z,15.15
2018-02-25T07:07:01.792Z,8.90
2018-02-25T07:09:27.912Z,17.30
2018-02-25T07:11:54.105Z,59.95
2018-02-25T07:14:20.238Z,33.88
2018-02-25T07:16:46.359Z,156.18
2018-02-25T07:19:12.484Z,19.92
2018-02-25T07:21:38.607Z,17.85
2018-02-25T07:24:04.887Z,21.55
2018-02-25T07:26:31.112Z,22.27
2018-02-25T07:28:57.243Z,10.80
2018-02-25T07:31:23.369Z,14.27
2018-02-25T07:33:49.529Z,13.77
2018-02-25T07:36:15.652Z,12.73
2018-02-25T07:38:41.774Z,6.30
2018-02-25T07:41:07.896Z,9.93
2018-02-25T07:43:34.056Z,10.60
2018-02-25T07:46:00.181Z,8.55
2018-02-25T07:48:26.305Z,5.97
2018-02-25T07:50:52.448Z,4.95
2018-02-25T07:53:18.619Z,10.27
2018-02-25T07:55:47.040Z,8.55
2018-02-25T07:58:13.703Z,16.20
2018-02-25T08:00:40.405Z,13.10
2018-02-25T08:03:06.774Z,10.38
2018-02-25T08:05:33.040Z,16.17
2018-02-25T08:08:01.261Z,15.32
2018-02-25T08:10:28.132Z,12.20
2018-02-25T08:12:55.605Z,12.77
2018-02-25T08:15:23.187Z,21.95
2018-02-25T08:17:50.519Z,11.00
2018-02-25T08:20:18.820Z,10.90
2018-02-25T08:22:48.460Z,10.55
2018-02-25T08:25:15.415Z,12.30
2018-02-25T08:27:43.562Z,12.13
2018-02-25T08:30:11.474Z,10.23
2018-02-25T08:32:37.837Z,8.93
2018-02-25T08:35:04.252Z,33.17
2018-02-25T08:37:30.955Z,15.50
2018-02-25T08:39:57.227Z,18.80
2018-02-25T08:42:25.985Z,12.15
2018-02-25T08:44:54.043Z,6.40
2018-02-25T08:47:24.922Z,12.93
2018-02-25T08:49:58.145Z,15.82
2018-02-25T08:52:26.718Z,11.15
2018-02-25T08:54:56.401Z,9.18
2018-02-25T08:57:32.461Z,10.10
2018-02-25T09:00:00.231Z,15.55
2018-02-25T09:02:30.326Z,9.80
2018-02-25T09:04:59.114Z,17.95
2018-02-25T09:07:26.466Z,17.45
2018-02-25T09:09:59.182Z,11.32
2018-02-25T09:12:25.465Z,13.32
2018-02-25T09:14:59.386Z,23.45
2018-02-25T09:17:28.791Z,16.80
2018-02-25T09:19:58.729Z,30.25
2018-02-25T09:22:28.155Z,18.25
2018-02-25T09:24:58.202Z,17.20
2018-02-25T09:27:36.430Z,15.05
2018-02-25T09:30:02.764Z,16.23
2018-02-25T09:32:30.115Z,17.58
2018-02-25T09:34:59.764Z,11.45
2018-02-25T09:37:28.044Z,11.10
2018-02-25T09:39:58.444Z,10.27
2018-02-25T09:42:29.722Z,17.42
2018-02-25T09:44:59.831Z,14.98
2018-02-25T09:47:28.301Z,12.10
2018-02-25T09:49:58.554Z,9.07
2018-02-25T09:52:29.034Z,11.65
2018-02-25T09:54:58.575Z,12.75
2018-02-25T09:57:28.329Z,11.32
2018-02-25T09:59:58.102Z,11.23
2018-02-25T10:02:28.288Z,13.50
2018-02-25T10:04:57.742Z,10.75
2018-02-25T10:07:26.834Z,11.32
2018-02-25T10:09:53.146Z,10.82
2018-02-25T10:12:19.548Z,9.68
2018-02-25T10:14:45.787Z,8.55
2018-02-25T10:17:14.672Z,23.95
2018-02-25T10:19:40.940Z,11.30
2018-02-25T10:22:07.514Z,5.25
2018-02-25T10:24:33.880Z,8.63
2018-02-25T10:27:00.402Z,10.00
2018-02-25T10:29:27.110Z,9.85
2018-02-25T10:31:53.339Z,6.75
2018-02-25T10:34:19.687Z,9.15
2018-02-25T10:36:46.206Z,10.30
2018-02-25T10:39:12.772Z,9.50
2018-02-25T10:41:39.103Z,10.48
2018-02-25T10:44:05.298Z,7.85
2018-02-25T10:46:33.524Z,8.95
2018-02-25T10:48:59.825Z,9.40
2018-02-25T10:51:26.248Z,7.97
2018-02-25T10:53:54.340Z,8.77
2018-02-25T10:56:21.607Z,6.97
2018-02-25T10:58:47.981Z,10.50
2018-02-25T11:01:14.745Z,10.65
2018-02-25T11:03:40.952Z,7.53
2018-02-25T11:06:07.499Z,8.00
2018-02-25T11:08:40.028Z,20.77
2018-02-25T11:11:07.425Z,7.10
2018-02-25T11:13:33.788Z,16.83
2018-02-25T11:16:00.191Z,6.43
2018-02-25T11:18:27.303Z,8.32
2018-02-25T11:20:53.550Z,13.93
2018-02-25T11:23:20.075Z,10.60
2018-02-25T11:25:46.378Z,6.35
2018-02-25T11:28:12.785Z,8.02
2018-02-25T11:30:39.164Z,6.37
2018-02-25T11:33:05.874Z,7.37
2018-02-25T11:35:32.129Z,4.00
2018-02-25T11:37:58.844Z,7.57
2018-02-25T11:40:25.043Z,9.35
2018-02-25T11:42:51.427Z,8.27
2018-02-25T11:45:18.110Z,8.73
2018-02-25T11:47:44.527Z,6.78
2018-02-25T11:50:10.728Z,10.52
2018-02-25T11:52:37.620Z,6.37
2018-02-25T11:55:04.253Z,9.82
2018-02-25T11:57:30.552Z,12.95
2018-02-25T11:59:57.588Z,8.07
2018-02-25T12:02:24.136Z,5.93
2018-02-25T12:04:50.345Z,7.72
2018-02-25T12:07:16.636Z,8.35
2018-02-25T12:09:42.942Z,5.45
2018-02-25T12:12:09.523Z,2.72
2018-02-25T12:14:35.762Z,6.40
2018-02-25T12:17:02.401Z,7.00
2018-02-25T12:19:28.604Z,4.03
2018-02-25T12:21:55.530Z,7.87
2018-02-25T12:24:21.723Z,5.47
2018-02-25T12:26:47.892Z,9.52
2018-02-25T12:29:14.048Z,7.75
2018-02-25T12:31:41.123Z,4.85
2018-02-25T12:34:08.102Z,6.37
2018-02-25T12:36:34.255Z,7.32
2018-02-25T12:39:01.045Z,5.72
2018-02-25T12:41:27.206Z,4.17
2018-02-25T12:43:54.907Z,6.07
2018-02-25T12:46:21.191Z,11.57
2018-02-25T12:48:48.404Z,4.55
2018-02-25T12:51:17.000Z,7.00
2018-02-25T12:53:43.168Z,4.60
2018-02-25T12:56:10.384Z,6.30
2018-02-25T12:58:36.702Z,6.47
2018-02-25T13:01:03.354Z,5.87
2018-02-25T13:03:31.940Z,3.80
2018-02-25T13:05:58.480Z,4.13
2018-02-25T13:08:24.728Z,5.10
2018-02-25T13:10:50.899Z,5.17
2018-02-25T13:13:18.106Z,4.03
2018-02-25T13:15:44.253Z,3.22
2018-02-25T13:18:10.555Z,6.53
2018-02-25T13:23:40.204Z,4.22
2018-02-25T13:26:06.486Z,2.40
2018-02-25T13:28:35.092Z,6.40
2018-02-25T13:31:01.577Z,6.37
2018-02-25T13:33:28.042Z,4.50
2018-02-25T13:35:54.208Z,4.70
2018-02-25T13:44:17.249Z,2.73
2018-02-25T13:46:43.951Z,9.83
2018-02-25T13:49:10.126Z,3.57
2018-02-25T13:51:37.796Z,4.10
2018-02-25T13:54:04.114Z,4.50
2018-02-25T13:56:32.072Z,6.30
2018-02-25T13:59:00.117Z,6.43
2018-02-25T14:01:27.013Z,8.80
2018-02-25T14:03:53.286Z,2.80
2018-02-25T14:06:19.498Z,2.90
2018-02-25T14:08:45.641Z,5.43
2018-02-25T14:11:13.553Z,4.50
2018-02-25T14:13:39.727Z,3.70
2018-02-25T14:16:06.588Z,2.90
2018-02-25T14:21:26.324Z,4.03
2018-02-25T14:23:52.540Z,5.13
2018-02-25T14:26:19.602Z,7.03
2018-02-25T14:28:46.041Z,4.00
2018-02-25T14:31:16.220Z,4.57
2018-02-25T14:33:42.630Z,5.33
2018-02-25T14:36:09.657Z,4.20
2018-02-25T14:41:39.671Z,2.57
2018-02-25T14:44:07.502Z,4.67
2018-02-25T14:46:33.778Z,2.63
2018-02-25T14:49:00.242Z,3.03
2018-02-25T14:51:26.395Z,3.13
2018-02-25T14:53:52.576Z,6.27
2018-02-25T14:56:19.145Z,2.00
2018-02-25T14:58:45.445Z,3.07
2018-02-25T15:01:11.645Z,2.77
2018-02-25T15:03:38.590Z,3.23
2018-02-25T15:06:05.777Z,7.47
2018-02-25T15:08:31.957Z,5.03
2018-02-25T15:10:58.391Z,11.00
2018-02-25T15:13:24.615Z,6.40
2018-02-25T15:15:50.816Z,6.23
2018-02-25T15:18:17.314Z,11.43
2018-02-25T15:20:43.424Z,7.90
2018-02-25T15:23:09.640Z,8.03
2018-02-25T15:25:36.309Z,2.50
2018-02-25T15:28:03.264Z,5.03
2018-02-25T15:30:30.864Z,6.40
2018-02-25T15:32:59.748Z,3.70
2018-02-25T15:35:28.579Z,3.47
2018-02-25T15:37:54.762Z,3.20
2018-02-25T15:40:24.219Z,8.77
2018-02-25T15:42:50.557Z,3.50
2018-02-25T15:45:16.738Z,28.70
2018-02-25T15:47:42.860Z,5.90
2018-02-25T15:50:08.988Z,5.65
2018-02-25T15:52:35.357Z,8.13
2018-02-25T15:55:02.125Z,5.93
2018-02-25T15:57:28.561Z,9.53
2018-02-25T15:59:54.711Z,3.78
2018-02-25T16:02:22.280Z,6.03
2018-02-25T16:04:48.797Z,4.95
2018-02-25T16:07:16.521Z,4.85
2018-02-25T16:09:43.150Z,5.10
2018-02-25T16:12:09.644Z,4.53
2018-02-25T16:14:36.002Z,6.00
2018-02-25T16:17:02.582Z,8.02
2018-02-25T16:19:29.270Z,9.77
2018-02-25T16:21:56.281Z,6.05
2018-02-25T16:24:22.663Z,8.48
2018-02-25T16:26:48.806Z,5.18
2018-02-25T16:29:15.712Z,4.32
2018-02-25T16:31:42.055Z,4.85
2018-02-25T16:34:08.636Z,3.28
2018-02-25T16:36:35.296Z,7.55
2018-02-25T16:39:01.685Z,7.32
2018-02-25T16:41:27.984Z,5.32
2018-02-25T16:43:54.786Z,5.15
2018-02-25T16:46:21.130Z,6.43
2018-02-25T16:48:47.739Z,5.47
2018-02-25T16:51:14.018Z,12.37
2018-02-25T16:53:40.432Z,6.90
2018-02-25T16:56:09.290Z,16.90
2018-02-25T16:58:35.819Z,9.10
2018-02-25T17:01:02.488Z,12.63
2018-02-25T17:03:28.985Z,8.40
2018-02-25T17:05:55.191Z,12.60
2018-02-25T17:08:21.858Z,6.50
2018-02-25T17:10:48.847Z,7.90
2018-02-25T17:13:15.787Z,5.00
2018-02-25T17:15:41.960Z,7.55
2018-02-25T17:18:08.205Z,4.72
2018-02-25T17:20:35.115Z,3.53
2018-02-25T17:23:01.552Z,12.00
2018-02-25T17:25:28.701Z,7.75
2018-02-25T17:27:54.913Z,8.18
2018-02-25T17:30:21.119Z,7.78
2018-02-25T17:32:47.259Z,3.47
2018-02-25T17:35:13.399Z,6.60
2018-02-25T17:37:40.290Z,3.25
2018-02-25T17:40:06.471Z,7.30
2018-02-25T17:42:33.029Z,5.72
2018-02-25T17:45:00.021Z,2.97
2018-02-25T17:47:27.969Z,5.85
2018-02-25T17:49:54.103Z,4.28
2018-02-25T17:52:20.643Z,5.32
2018-02-25T17:54:46.816Z,5.10
2018-02-25T17:57:12.955Z,8.18
2018-02-25T17:59:39.103Z,4.60
2018-02-25T18:02:05.642Z,9.07
2018-02-25T18:04:32.200Z,13.25
2018-02-25T18:06:59.803Z,5.45
2018-02-25T18:09:26.040Z,9.27
2018-02-25T18:11:52.323Z,7.78
2018-02-25T18:14:18.518Z,6.68
2018-02-25T18:16:44.640Z,10.82
2018-02-25T18:19:11.512Z,6.65
2018-02-25T18:21:38.379Z,6.53
2018-02-25T18:24:04.575Z,5.28
2018-02-25T18:26:31.034Z,8.40
2018-02-25T18:28:58.188Z,9.40
2018-02-25T18:31:25.073Z,9.10
2018-02-25T18:33:51.618Z,8.43
2018-02-25T18:36:17.768Z,7.30
2018-02-25T18:38:43.890Z,4.37
2018-02-25T18:41:10.045Z,4.62
2018-02-25T18:43:36.555Z,4.30
2018-02-25T18:46:03.068Z,6.62
2018-02-25T18:48:29.829Z,7.05
2018-02-25T18:50:56.734Z,6.60
2018-02-25T18:53:22.891Z,9.35
2018-02-25T18:55:49.059Z,2.80
2018-02-25T18:58:15.203Z,5.32
2018-02-25T19:00:41.348Z,3.67
2018-02-25T19:03:07.482Z,6.78
2018-02-25T19:05:33.754Z,6.10
2018-02-25T19:08:00.188Z,5.00
2018-02-25T19:10:26.395Z,5.20
2018-02-25T19:12:54.663Z,4.87
2018-02-25T19:15:20.886Z,13.52
2018-02-25T19:17:47.965Z,6.18
2018-02-25T19:20:14.096Z,6.95
2018-02-25T19:22:42.769Z,11.30
2018-02-25T19:25:09.033Z,9.32
2018-02-25T19:27:35.308Z,5.60
2018-02-25T19:30:01.986Z,18.87
2018-02-25T19:32:28.486Z,13.27
2018-02-25T19:34:54.632Z,7.62
2018-02-25T19:37:26.920Z,9.02
2018-02-25T19:39:59.507Z,23.17
2018-02-25T19:42:25.628Z,9.25
2018-02-25T19:44:52.036Z,4.20
2018-02-25T19:47:19.380Z,4.05
2018-02-25T19:49:45.588Z,8.13
2018-02-25T19:52:12.472Z,5.85
2018-02-25T19:54:38.639Z,5.65
2018-02-25T19:57:05.162Z,13.60
2018-02-25T19:59:31.833Z,4.60
2018-02-25T20:01:58.561Z,6.87
2018-02-25T20:04:24.880Z,5.97
2018-02-25T20:06:51.405Z,7.07
2018-02-25T20:09:17.628Z,7.35
2018-02-25T20:11:43.840Z,5.05
2018-02-25T20:14:09.968Z,3.60
2018-02-25T20:16:36.261Z,5.25
2018-02-25T20:19:02.969Z,8.80
2018-02-25T20:21:29.413Z,11.65
2018-02-25T20:23:55.569Z,4.20
2018-02-25T20:26:21.802Z,7.75
2018-02-25T20:28:48.267Z,4.68
2018-02-25T20:31:14.423Z,7.20
2018-02-25T20:33:40.539Z,13.57
2018-02-25T20:36:06.921Z,5.20
2018-02-25T20:38:33.246Z,6.25
2018-02-25T20:40:59.958Z,7.07
2018-02-25T20:43:26.134Z,13.27
2018-02-25T20:45:52.520Z,4.80
2018-02-25T20:48:19.803Z,7.10
2018-02-25T20:50:45.975Z,7.62
2018-02-25T20:53:12.129Z,3.80
2018-02-25T20:55:38.259Z,4.15
2018-02-25T20:58:04.731Z,3.17
2018-02-25T21:00:32.512Z,4.78
2018-02-25T21:02:58.771Z,3.78
2018-02-25T21:05:24.899Z,7.35
2018-02-25T21:07:51.959Z,4.18
2018-02-25T21:10:19.059Z,3.83
2018-02-25T21:12:45.216Z,3.80
2018-02-25T21:15:11.396Z,4.20
2018-02-25T21:17:44.086Z,4.03
2018-02-25T21:20:10.211Z,5.37
2018-02-25T21:22:36.327Z,5.03
2018-02-25T21:25:02.970Z,4.35
2018-02-25T21:27:29.247Z,6.05
2018-02-25T21:29:55.439Z,4.18
2018-02-25T21:32:21.585Z,2.47
2018-02-25T21:34:49.544Z,6.97
2018-02-25T21:37:16.722Z,6.85
2018-02-25T21:39:45.320Z,4.10
2018-02-25T21:45:18.171Z,5.28
2018-02-25T21:47:47.603Z,4.25
2018-02-25T21:50:18.229Z,3.30
2018-02-25T21:52:46.364Z,7.87
2018-02-25T21:55:14.410Z,9.63
2018-02-25T21:57:49.394Z,5.32
2018-02-25T22:00:28.720Z,3.65
2018-02-25T22:12:03.819Z,4.00
